sensor_id;sensor_type;location;lat;lon;timestamp;P1;durP1;ratioP1;P2;durP2;ratioP2
28481;SDS011;15703;49.588;6.260;2023-04-25T00:01:11;14.93;;;11.57;;
28481;SDS011;15703;49.588;6.260;2023-04-25T00:03:34;13.83;;;12.03;;
28481;SDS011;15703;49.588;6.260;2023-04-25T00:05:57;16.73;;;12.50;;
28481;SDS011;15703;49.588;6.260;2023-04-25T00:08:24;16.00;;;12.67;;
28481;SDS011;15703;49.588;6.260;2023-04-25T00:10:46;15.87;;;11.83;;
28481;SDS011;15703;49.588;6.260;2023-04-25T00:13:10;14.60;;;11.63;;
28481;SDS011;15703;49.588;6.260;2023-04-25T00:15:32;13.07;;;11.67;;
28481;SDS011;15703;49.588;6.260;2023-04-25T00:17:56;13.27;;;11.77;;
28481;SDS011;15703;49.588;6.260;2023-04-25T00:20:18;12.50;;;11.10;;
28481;SDS011;15703;49.588;6.260;2023-04-25T00:22:40;12.90;;;11.40;;
28481;SDS011;15703;49.588;6.260;2023-04-25T00:25:04;11.60;;;10.40;;
28481;SDS011;15703;49.588;6.260;2023-04-25T00:27:27;14.57;;;12.50;;
28481;SDS011;15703;49.588;6.260;2023-04-25T00:29:49;13.87;;;10.87;;
28481;SDS011;15703;49.588;6.260;2023-04-25T00:32:12;13.83;;;10.97;;
28481;SDS011;15703;49.588;6.260;2023-04-25T00:34:34;11.60;;;10.10;;
28481;SDS011;15703;49.588;6.260;2023-04-25T00:36:57;10.77;;;9.67;;
28481;SDS011;15703;49.588;6.260;2023-04-25T00:39:19;9.33;;;8.23;;
28481;SDS011;15703;49.588;6.260;2023-04-25T00:41:42;8.40;;;7.53;;
28481;SDS011;15703;49.588;6.260;2023-04-25T00:44:05;9.23;;;7.47;;
28481;SDS011;15703;49.588;6.260;2023-04-25T00:46:28;8.07;;;7.03;;
28481;SDS011;15703;49.588;6.260;2023-04-25T00:48:50;6.60;;;6.00;;
28481;SDS011;15703;49.588;6.260;2023-04-25T00:51:16;6.63;;;6.00;;
28481;SDS011;15703;49.588;6.260;2023-04-25T00:53:41;7.17;;;6.43;;
28481;SDS011;15703;49.588;6.260;2023-04-25T00:56:03;7.07;;;6.37;;
28481;SDS011;15703;49.588;6.260;2023-04-25T00:58:26;7.93;;;6.53;;
28481;SDS011;15703;49.588;6.260;2023-04-25T01:00:49;7.90;;;6.57;;
28481;SDS011;15703;49.588;6.260;2023-04-25T01:03:13;7.53;;;6.20;;
28481;SDS011;15703;49.588;6.260;2023-04-25T01:05:41;7.77;;;6.53;;
28481;SDS011;15703;49.588;6.260;2023-04-25T01:08:04;8.53;;;6.90;;
28481;SDS011;15703;49.588;6.260;2023-04-25T01:10:26;7.13;;;6.43;;
28481;SDS011;15703;49.588;6.260;2023-04-25T01:12:49;6.23;;;5.70;;
28481;SDS011;15703;49.588;6.260;2023-04-25T01:15:11;8.50;;;6.40;;
28481;SDS011;15703;49.588;6.260;2023-04-25T01:17:34;5.57;;;5.07;;
28481;SDS011;15703;49.588;6.260;2023-04-25T01:19:57;5.80;;;5.30;;
28481;SDS011;15703;49.588;6.260;2023-04-25T01:22:19;5.53;;;5.03;;
28481;SDS011;15703;49.588;6.260;2023-04-25T01:24:42;6.03;;;5.53;;
28481;SDS011;15703;49.588;6.260;2023-04-25T01:27:05;6.07;;;5.47;;
28481;SDS011;15703;49.588;6.260;2023-04-25T01:29:28;7.07;;;6.23;;
28481;SDS011;15703;49.588;6.260;2023-04-25T01:31:51;7.27;;;6.57;;
28481;SDS011;15703;49.588;6.260;2023-04-25T01:34:14;6.20;;;5.60;;
28481;SDS011;15703;49.588;6.260;2023-04-25T01:36:36;6.20;;;5.60;;
28481;SDS011;15703;49.588;6.260;2023-04-25T01:38:59;7.57;;;6.73;;
28481;SDS011;15703;49.588;6.260;2023-04-25T01:41:22;8.20;;;7.40;;
28481;SDS011;15703;49.588;6.260;2023-04-25T01:43:45;8.30;;;6.90;;
28481;SDS011;15703;49.588;6.260;2023-04-25T01:46:07;8.10;;;6.50;;
28481;SDS011;15703;49.588;6.260;2023-04-25T01:48:29;10.17;;;7.27;;
28481;SDS011;15703;49.588;6.260;2023-04-25T01:50:52;8.80;;;7.80;;
28481;SDS011;15703;49.588;6.260;2023-04-25T01:53:14;10.87;;;9.07;;
28481;SDS011;15703;49.588;6.260;2023-04-25T01:55:38;9.77;;;8.60;;
28481;SDS011;15703;49.588;6.260;2023-04-25T01:58:07;11.37;;;10.13;;
28481;SDS011;15703;49.588;6.260;2023-04-25T02:00:49;10.67;;;9.50;;
28481;SDS011;15703;49.588;6.260;2023-04-25T02:03:11;12.30;;;10.13;;
28481;SDS011;15703;49.588;6.260;2023-04-25T02:05:35;11.60;;;10.40;;
28481;SDS011;15703;49.588;6.260;2023-04-25T02:07:59;11.90;;;10.57;;
28481;SDS011;15703;49.588;6.260;2023-04-25T02:10:22;14.93;;;11.33;;
28481;SDS011;15703;49.588;6.260;2023-04-25T02:12:55;11.70;;;10.50;;
28481;SDS011;15703;49.588;6.260;2023-04-25T02:15:34;11.90;;;10.70;;
28481;SDS011;15703;49.588;6.260;2023-04-25T02:18:08;12.83;;;10.63;;
28481;SDS011;15703;49.588;6.260;2023-04-25T02:20:31;10.87;;;9.73;;
28481;SDS011;15703;49.588;6.260;2023-04-25T02:22:54;14.00;;;11.20;;
28481;SDS011;15703;49.588;6.260;2023-04-25T02:25:17;11.83;;;10.33;;
28481;SDS011;15703;49.588;6.260;2023-04-25T02:27:41;11.00;;;9.90;;
28481;SDS011;15703;49.588;6.260;2023-04-25T02:30:05;11.33;;;10.23;;
28481;SDS011;15703;49.588;6.260;2023-04-25T02:32:27;16.63;;;11.23;;
28481;SDS011;15703;49.588;6.260;2023-04-25T02:34:50;13.50;;;11.00;;
28481;SDS011;15703;49.588;6.260;2023-04-25T02:37:12;11.07;;;9.47;;
28481;SDS011;15703;49.588;6.260;2023-04-25T02:39:34;11.83;;;10.57;;
28481;SDS011;15703;49.588;6.260;2023-04-25T02:41:56;12.90;;;10.30;;
28481;SDS011;15703;49.588;6.260;2023-04-25T02:44:19;12.77;;;11.37;;
28481;SDS011;15703;49.588;6.260;2023-04-25T02:46:41;12.43;;;11.13;;
28481;SDS011;15703;49.588;6.260;2023-04-25T02:49:04;12.23;;;10.20;;
28481;SDS011;15703;49.588;6.260;2023-04-25T02:51:26;14.23;;;10.87;;
28481;SDS011;15703;49.588;6.260;2023-04-25T02:53:48;12.43;;;11.17;;
28481;SDS011;15703;49.588;6.260;2023-04-25T02:56:11;13.03;;;11.43;;
28481;SDS011;15703;49.588;6.260;2023-04-25T02:58:33;13.90;;;10.93;;
28481;SDS011;15703;49.588;6.260;2023-04-25T03:00:56;13.03;;;11.70;;
28481;SDS011;15703;49.588;6.260;2023-04-25T03:03:18;19.57;;;13.17;;
28481;SDS011;15703;49.588;6.260;2023-04-25T03:05:43;17.03;;;12.47;;
28481;SDS011;15703;49.588;6.260;2023-04-25T03:08:08;14.37;;;11.80;;
28481;SDS011;15703;49.588;6.260;2023-04-25T03:10:32;13.40;;;11.37;;
28481;SDS011;15703;49.588;6.260;2023-04-25T03:12:58;14.17;;;12.40;;
28481;SDS011;15703;49.588;6.260;2023-04-25T03:15:20;13.50;;;12.00;;
28481;SDS011;15703;49.588;6.260;2023-04-25T03:17:43;13.73;;;12.00;;
28481;SDS011;15703;49.588;6.260;2023-04-25T03:20:05;12.37;;;10.80;;
28481;SDS011;15703;49.588;6.260;2023-04-25T03:22:30;12.97;;;11.60;;
28481;SDS011;15703;49.588;6.260;2023-04-25T03:24:53;13.70;;;12.30;;
28481;SDS011;15703;49.588;6.260;2023-04-25T03:27:16;14.07;;;12.53;;
28481;SDS011;15703;49.588;6.260;2023-04-25T03:29:38;15.00;;;12.63;;
28481;SDS011;15703;49.588;6.260;2023-04-25T03:32:02;14.47;;;12.63;;
28481;SDS011;15703;49.588;6.260;2023-04-25T03:34:24;13.97;;;12.33;;
28481;SDS011;15703;49.588;6.260;2023-04-25T03:36:47;13.53;;;12.03;;
28481;SDS011;15703;49.588;6.260;2023-04-25T03:39:09;16.60;;;13.37;;
28481;SDS011;15703;49.588;6.260;2023-04-25T03:41:33;14.50;;;11.67;;
28481;SDS011;15703;49.588;6.260;2023-04-25T03:44:01;17.37;;;13.10;;
28481;SDS011;15703;49.588;6.260;2023-04-25T03:46:23;14.13;;;12.17;;
28481;SDS011;15703;49.588;6.260;2023-04-25T03:48:46;17.57;;;13.47;;
28481;SDS011;15703;49.588;6.260;2023-04-25T03:51:14;16.07;;;12.70;;
28481;SDS011;15703;49.588;6.260;2023-04-25T03:53:38;16.07;;;13.20;;
28481;SDS011;15703;49.588;6.260;2023-04-25T03:56:13;13.93;;;12.43;;
28481;SDS011;15703;49.588;6.260;2023-04-25T03:58:36;13.53;;;12.13;;
28481;SDS011;15703;49.588;6.260;2023-04-25T04:00:59;12.00;;;10.80;;
28481;SDS011;15703;49.588;6.260;2023-04-25T04:03:25;11.80;;;10.53;;
28481;SDS011;15703;49.588;6.260;2023-04-25T04:05:47;14.03;;;11.93;;
28481;SDS011;15703;49.588;6.260;2023-04-25T04:08:11;12.07;;;10.33;;
28481;SDS011;15703;49.588;6.260;2023-04-25T04:10:34;10.70;;;9.53;;
28481;SDS011;15703;49.588;6.260;2023-04-25T04:12:56;12.67;;;10.00;;
28481;SDS011;15703;49.588;6.260;2023-04-25T04:15:18;10.77;;;9.37;;
28481;SDS011;15703;49.588;6.260;2023-04-25T04:17:42;12.13;;;10.27;;
28481;SDS011;15703;49.588;6.260;2023-04-25T04:20:05;10.47;;;9.37;;
28481;SDS011;15703;49.588;6.260;2023-04-25T04:22:27;11.37;;;9.70;;
28481;SDS011;15703;49.588;6.260;2023-04-25T04:24:53;12.43;;;9.73;;
28481;SDS011;15703;49.588;6.260;2023-04-25T04:27:31;10.57;;;9.10;;
28481;SDS011;15703;49.588;6.260;2023-04-25T04:30:09;10.30;;;8.53;;
28481;SDS011;15703;49.588;6.260;2023-04-25T04:32:41;11.23;;;9.57;;
28481;SDS011;15703;49.588;6.260;2023-04-25T04:35:04;13.13;;;10.43;;
28481;SDS011;15703;49.588;6.260;2023-04-25T04:37:27;13.87;;;10.40;;
28481;SDS011;15703;49.588;6.260;2023-04-25T04:39:51;12.67;;;9.77;;
28481;SDS011;15703;49.588;6.260;2023-04-25T04:42:20;13.33;;;9.87;;
28481;SDS011;15703;49.588;6.260;2023-04-25T04:44:56;11.63;;;10.40;;
28481;SDS011;15703;49.588;6.260;2023-04-25T04:47:34;12.83;;;10.77;;
28481;SDS011;15703;49.588;6.260;2023-04-25T04:50:24;14.00;;;10.47;;
28481;SDS011;15703;49.588;6.260;2023-04-25T04:53:08;12.67;;;10.67;;
28481;SDS011;15703;49.588;6.260;2023-04-25T04:55:51;12.97;;;10.70;;
28481;SDS011;15703;49.588;6.260;2023-04-25T04:58:36;14.63;;;11.33;;
28481;SDS011;15703;49.588;6.260;2023-04-25T05:01:13;13.60;;;10.50;;
28481;SDS011;15703;49.588;6.260;2023-04-25T05:03:53;12.97;;;10.90;;
28481;SDS011;15703;49.588;6.260;2023-04-25T05:06:36;12.10;;;10.80;;
28481;SDS011;15703;49.588;6.260;2023-04-25T05:09:17;15.43;;;12.90;;
28481;SDS011;15703;49.588;6.260;2023-04-25T05:12:04;14.10;;;11.73;;
28481;SDS011;15703;49.588;6.260;2023-04-25T05:14:32;14.63;;;11.73;;
28481;SDS011;15703;49.588;6.260;2023-04-25T05:17:27;12.93;;;11.03;;
28481;SDS011;15703;49.588;6.260;2023-04-25T05:20:06;15.30;;;12.40;;
28481;SDS011;15703;49.588;6.260;2023-04-25T05:22:59;15.07;;;11.93;;
28481;SDS011;15703;49.588;6.260;2023-04-25T05:25:41;12.93;;;11.63;;
28481;SDS011;15703;49.588;6.260;2023-04-25T05:28:26;15.33;;;12.20;;
28481;SDS011;15703;49.588;6.260;2023-04-25T05:31:11;15.40;;;12.77;;
28481;SDS011;15703;49.588;6.260;2023-04-25T05:34:03;15.73;;;10.60;;
28481;SDS011;15703;49.588;6.260;2023-04-25T05:36:46;12.17;;;10.87;;
28481;SDS011;15703;49.588;6.260;2023-04-25T05:39:10;12.90;;;10.43;;
28481;SDS011;15703;49.588;6.260;2023-04-25T05:41:51;11.60;;;9.87;;
28481;SDS011;15703;49.588;6.260;2023-04-25T05:44:32;12.40;;;10.47;;
28481;SDS011;15703;49.588;6.260;2023-04-25T05:47:11;11.17;;;9.90;;
28481;SDS011;15703;49.588;6.260;2023-04-25T05:49:55;10.80;;;9.70;;
28481;SDS011;15703;49.588;6.260;2023-04-25T05:52:36;10.97;;;9.83;;
28481;SDS011;15703;49.588;6.260;2023-04-25T05:55:11;10.53;;;9.00;;
28481;SDS011;15703;49.588;6.260;2023-04-25T05:57:35;10.60;;;9.53;;
28481;SDS011;15703;49.588;6.260;2023-04-25T05:59:59;9.70;;;8.70;;
28481;SDS011;15703;49.588;6.260;2023-04-25T06:02:33;9.93;;;8.90;;
28481;SDS011;15703;49.588;6.260;2023-04-25T06:04:56;9.93;;;8.90;;
28481;SDS011;15703;49.588;6.260;2023-04-25T06:07:19;11.33;;;8.20;;
28481;SDS011;15703;49.588;6.260;2023-04-25T06:09:42;8.90;;;8.00;;
28481;SDS011;15703;49.588;6.260;2023-04-25T06:12:05;10.70;;;8.67;;
28481;SDS011;15703;49.588;6.260;2023-04-25T06:14:28;8.77;;;7.90;;
28481;SDS011;15703;49.588;6.260;2023-04-25T06:16:52;9.57;;;8.30;;
28481;SDS011;15703;49.588;6.260;2023-04-25T06:19:14;8.00;;;7.20;;
28481;SDS011;15703;49.588;6.260;2023-04-25T06:21:36;8.10;;;7.30;;
28481;SDS011;15703;49.588;6.260;2023-04-25T06:23:58;9.30;;;8.40;;
28481;SDS011;15703;49.588;6.260;2023-04-25T06:26:22;8.90;;;7.73;;
28481;SDS011;15703;49.588;6.260;2023-04-25T06:28:44;8.77;;;7.70;;
28481;SDS011;15703;49.588;6.260;2023-04-25T06:31:07;9.97;;;7.60;;
28481;SDS011;15703;49.588;6.260;2023-04-25T06:33:29;8.93;;;7.73;;
28481;SDS011;15703;49.588;6.260;2023-04-25T06:35:53;7.67;;;6.93;;
28481;SDS011;15703;49.588;6.260;2023-04-25T06:38:19;7.90;;;7.10;;
28481;SDS011;15703;49.588;6.260;2023-04-25T06:40:44;7.60;;;6.90;;
28481;SDS011;15703;49.588;6.260;2023-04-25T06:43:07;9.27;;;7.03;;
28481;SDS011;15703;49.588;6.260;2023-04-25T06:45:55;8.50;;;7.70;;
28481;SDS011;15703;49.588;6.260;2023-04-25T06:48:21;8.30;;;7.33;;
28481;SDS011;15703;49.588;6.260;2023-04-25T06:50:44;10.10;;;7.87;;
28481;SDS011;15703;49.588;6.260;2023-04-25T06:53:07;9.33;;;8.43;;
28481;SDS011;15703;49.588;6.260;2023-04-25T06:55:30;8.90;;;8.00;;
28481;SDS011;15703;49.588;6.260;2023-04-25T06:58:05;9.33;;;8.23;;
28481;SDS011;15703;49.588;6.260;2023-04-25T07:00:53;9.53;;;8.63;;
28481;SDS011;15703;49.588;6.260;2023-04-25T07:03:18;10.67;;;8.20;;
28481;SDS011;15703;49.588;6.260;2023-04-25T07:05:40;10.43;;;8.60;;
28481;SDS011;15703;49.588;6.260;2023-04-25T07:08:03;10.23;;;8.40;;
28481;SDS011;15703;49.588;6.260;2023-04-25T07:10:25;9.13;;;8.23;;
28481;SDS011;15703;49.588;6.260;2023-04-25T07:12:47;10.90;;;8.57;;
28481;SDS011;15703;49.588;6.260;2023-04-25T07:15:10;8.90;;;8.00;;
28481;SDS011;15703;49.588;6.260;2023-04-25T07:17:35;10.63;;;8.90;;
28481;SDS011;15703;49.588;6.260;2023-04-25T07:19:57;9.53;;;8.33;;
28481;SDS011;15703;49.588;6.260;2023-04-25T07:22:21;9.07;;;8.10;;
28481;SDS011;15703;49.588;6.260;2023-04-25T07:24:43;9.93;;;8.20;;
28481;SDS011;15703;49.588;6.260;2023-04-25T07:27:12;11.23;;;8.30;;
28481;SDS011;15703;49.588;6.260;2023-04-25T07:29:48;9.73;;;8.73;;
28481;SDS011;15703;49.588;6.260;2023-04-25T07:32:10;11.60;;;7.53;;
28481;SDS011;15703;49.588;6.260;2023-04-25T07:34:36;10.93;;;7.93;;
28481;SDS011;15703;49.588;6.260;2023-04-25T07:36:59;12.80;;;7.93;;
28481;SDS011;15703;49.588;6.260;2023-04-25T07:39:29;9.40;;;7.70;;
28481;SDS011;15703;49.588;6.260;2023-04-25T07:41:51;8.97;;;7.13;;
28481;SDS011;15703;49.588;6.260;2023-04-25T07:44:19;11.33;;;7.97;;
28481;SDS011;15703;49.588;6.260;2023-04-25T07:46:41;9.90;;;7.57;;
28481;SDS011;15703;49.588;6.260;2023-04-25T07:49:03;11.17;;;8.10;;
28481;SDS011;15703;49.588;6.260;2023-04-25T07:51:26;10.47;;;7.80;;
28481;SDS011;15703;49.588;6.260;2023-04-25T07:53:52;9.47;;;7.37;;
28481;SDS011;15703;49.588;6.260;2023-04-25T07:56:15;9.47;;;7.63;;
28481;SDS011;15703;49.588;6.260;2023-04-25T07:58:41;7.63;;;6.53;;
28481;SDS011;15703;49.588;6.260;2023-04-25T08:01:06;9.87;;;6.50;;
28481;SDS011;15703;49.588;6.260;2023-04-25T08:03:28;8.37;;;6.30;;
28481;SDS011;15703;49.588;6.260;2023-04-25T08:05:52;11.90;;;6.93;;
28481;SDS011;15703;49.588;6.260;2023-04-25T08:08:15;8.40;;;7.27;;
28481;SDS011;15703;49.588;6.260;2023-04-25T08:10:37;10.57;;;6.87;;
28481;SDS011;15703;49.588;6.260;2023-04-25T08:12:59;10.37;;;6.77;;
28481;SDS011;15703;49.588;6.260;2023-04-25T08:15:23;7.83;;;6.47;;
28481;SDS011;15703;49.588;6.260;2023-04-25T08:17:46;8.97;;;7.07;;
28481;SDS011;15703;49.588;6.260;2023-04-25T08:20:09;10.80;;;7.37;;
28481;SDS011;15703;49.588;6.260;2023-04-25T08:22:32;12.37;;;7.57;;
28481;SDS011;15703;49.588;6.260;2023-04-25T08:25:18;9.93;;;7.00;;
28481;SDS011;15703;49.588;6.260;2023-04-25T08:27:41;9.23;;;6.77;;
28481;SDS011;15703;49.588;6.260;2023-04-25T08:30:04;8.50;;;6.20;;
28481;SDS011;15703;49.588;6.260;2023-04-25T08:32:27;7.97;;;5.97;;
28481;SDS011;15703;49.588;6.260;2023-04-25T08:35:08;12.90;;;6.50;;
28481;SDS011;15703;49.588;6.260;2023-04-25T08:37:31;6.90;;;5.40;;
28481;SDS011;15703;49.588;6.260;2023-04-25T08:40:01;10.50;;;5.43;;
28481;SDS011;15703;49.588;6.260;2023-04-25T08:42:52;10.60;;;5.50;;
28481;SDS011;15703;49.588;6.260;2023-04-25T08:45:15;7.93;;;5.67;;
28481;SDS011;15703;49.588;6.260;2023-04-25T08:47:38;9.73;;;5.77;;
28481;SDS011;15703;49.588;6.260;2023-04-25T08:50:02;7.83;;;5.53;;
28481;SDS011;15703;49.588;6.260;2023-04-25T08:52:25;6.70;;;5.00;;
28481;SDS011;15703;49.588;6.260;2023-04-25T08:54:49;8.83;;;5.70;;
28481;SDS011;15703;49.588;6.260;2023-04-25T08:57:16;6.80;;;5.40;;
28481;SDS011;15703;49.588;6.260;2023-04-25T08:59:40;11.43;;;5.60;;
28481;SDS011;15703;49.588;6.260;2023-04-25T09:02:07;11.83;;;5.57;;
28481;SDS011;15703;49.588;6.260;2023-04-25T09:04:31;8.83;;;5.57;;
28481;SDS011;15703;49.588;6.260;2023-04-25T09:06:53;7.60;;;5.87;;
28481;SDS011;15703;49.588;6.260;2023-04-25T09:09:16;9.57;;;5.70;;
28481;SDS011;15703;49.588;6.260;2023-04-25T09:11:39;10.30;;;5.93;;
28481;SDS011;15703;49.588;6.260;2023-04-25T09:14:17;10.97;;;6.70;;
28481;SDS011;15703;49.588;6.260;2023-04-25T09:17:00;9.70;;;6.20;;
28481;SDS011;15703;49.588;6.260;2023-04-25T09:19:33;7.07;;;5.53;;
28481;SDS011;15703;49.588;6.260;2023-04-25T09:22:14;9.47;;;6.67;;
28481;SDS011;15703;49.588;6.260;2023-04-25T09:26:58;9.60;;;6.43;;
28481;SDS011;15703;49.588;6.260;2023-04-25T09:29:30;10.87;;;6.90;;
28481;SDS011;15703;49.588;6.260;2023-04-25T09:31:53;10.27;;;6.50;;
28481;SDS011;15703;49.588;6.260;2023-04-25T09:34:38;9.40;;;6.53;;
28481;SDS011;15703;49.588;6.260;2023-04-25T09:37:02;11.60;;;6.70;;
28481;SDS011;15703;49.588;6.260;2023-04-25T09:39:28;11.73;;;7.87;;
28481;SDS011;15703;49.588;6.260;2023-04-25T09:41:58;10.37;;;6.70;;
28481;SDS011;15703;49.588;6.260;2023-04-25T09:44:24;9.67;;;6.40;;
28481;SDS011;15703;49.588;6.260;2023-04-25T09:46:49;11.87;;;6.83;;
28481;SDS011;15703;49.588;6.260;2023-04-25T09:49:19;10.73;;;6.17;;
28481;SDS011;15703;49.588;6.260;2023-04-25T09:51:57;8.93;;;6.33;;
28481;SDS011;15703;49.588;6.260;2023-04-25T09:54:28;9.53;;;5.37;;
28481;SDS011;15703;49.588;6.260;2023-04-25T09:57:19;9.47;;;5.00;;
28481;SDS011;15703;49.588;6.260;2023-04-25T09:59:52;7.97;;;4.60;;
28481;SDS011;15703;49.588;6.260;2023-04-25T10:02:17;8.03;;;4.80;;
28481;SDS011;15703;49.588;6.260;2023-04-25T10:04:53;8.50;;;4.10;;
28481;SDS011;15703;49.588;6.260;2023-04-25T10:07:29;6.63;;;4.60;;
28481;SDS011;15703;49.588;6.260;2023-04-25T10:09:54;6.80;;;4.60;;
28481;SDS011;15703;49.588;6.260;2023-04-25T10:12:17;5.93;;;3.90;;
28481;SDS011;15703;49.588;6.260;2023-04-25T10:14:39;5.33;;;4.40;;
28481;SDS011;15703;49.588;6.260;2023-04-25T10:17:02;8.20;;;4.37;;
28481;SDS011;15703;49.588;6.260;2023-04-25T10:19:25;5.33;;;3.80;;
28481;SDS011;15703;49.588;6.260;2023-04-25T10:21:51;8.60;;;4.23;;
28481;SDS011;15703;49.588;6.260;2023-04-25T10:24:14;5.07;;;3.63;;
28481;SDS011;15703;49.588;6.260;2023-04-25T10:26:37;5.27;;;3.67;;
28481;SDS011;15703;49.588;6.260;2023-04-25T10:29:01;6.67;;;3.77;;
28481;SDS011;15703;49.588;6.260;2023-04-25T10:31:23;5.47;;;3.87;;
28481;SDS011;15703;49.588;6.260;2023-04-25T10:33:46;6.38;;;3.40;;
28481;SDS011;15703;49.588;6.260;2023-04-25T10:36:10;8.23;;;4.43;;
28481;SDS011;15703;49.588;6.260;2023-04-25T10:38:32;9.73;;;4.23;;
28481;SDS011;15703;49.588;6.260;2023-04-25T10:41:04;6.63;;;3.43;;
28481;SDS011;15703;49.588;6.260;2023-04-25T10:43:40;5.97;;;3.50;;
28481;SDS011;15703;49.588;6.260;2023-04-25T10:48:45;8.10;;;3.53;;
28481;SDS011;15703;49.588;6.260;2023-04-25T10:53:45;6.70;;;3.42;;
28481;SDS011;15703;49.588;6.260;2023-04-25T10:56:11;5.70;;;3.88;;
28481;SDS011;15703;49.588;6.260;2023-04-25T10:58:41;5.78;;;3.38;;
28481;SDS011;15703;49.588;6.260;2023-04-25T11:01:04;4.57;;;3.08;;
28481;SDS011;15703;49.588;6.260;2023-04-25T11:03:47;3.72;;;2.92;;
28481;SDS011;15703;49.588;6.260;2023-04-25T11:08:59;4.60;;;2.95;;
28481;SDS011;15703;49.588;6.260;2023-04-25T11:11:23;5.65;;;2.97;;
28481;SDS011;15703;49.588;6.260;2023-04-25T11:13:49;3.30;;;2.60;;
28481;SDS011;15703;49.588;6.260;2023-04-25T11:16:58;3.47;;;2.60;;
28481;SDS011;15703;49.588;6.260;2023-04-25T11:19:22;4.13;;;2.88;;
28481;SDS011;15703;49.588;6.260;2023-04-25T11:21:44;3.60;;;2.30;;
28481;SDS011;15703;49.588;6.260;2023-04-25T11:24:07;4.13;;;2.50;;
28481;SDS011;15703;49.588;6.260;2023-04-25T11:30:14;4.35;;;2.75;;
28481;SDS011;15703;49.588;6.260;2023-04-25T11:32:40;3.92;;;2.80;;
28481;SDS011;15703;49.588;6.260;2023-04-25T11:35:13;3.70;;;2.50;;
28481;SDS011;15703;49.588;6.260;2023-04-25T11:40:43;4.35;;;2.35;;
28481;SDS011;15703;49.588;6.260;2023-04-25T11:43:05;3.67;;;2.88;;
28481;SDS011;15703;49.588;6.260;2023-04-25T11:45:55;3.38;;;2.78;;
28481;SDS011;15703;49.588;6.260;2023-04-25T11:48:17;3.45;;;2.45;;
28481;SDS011;15703;49.588;6.260;2023-04-25T11:50:44;5.22;;;2.95;;
28481;SDS011;15703;49.588;6.260;2023-04-25T11:53:06;5.30;;;2.90;;
28481;SDS011;15703;49.588;6.260;2023-04-25T11:55:29;7.37;;;3.10;;
28481;SDS011;15703;49.588;6.260;2023-04-25T12:04:36;5.33;;;2.90;;
28481;SDS011;15703;49.588;6.260;2023-04-25T12:06:59;6.23;;;2.80;;
28481;SDS011;15703;49.588;6.260;2023-04-25T12:09:30;3.10;;;2.53;;
28481;SDS011;15703;49.588;6.260;2023-04-25T12:11:57;7.17;;;3.37;;
28481;SDS011;15703;49.588;6.260;2023-04-25T12:14:25;4.90;;;3.33;;
28481;SDS011;15703;49.588;6.260;2023-04-25T12:16:48;6.00;;;3.33;;
28481;SDS011;15703;49.588;6.260;2023-04-25T12:19:15;5.73;;;2.93;;
28481;SDS011;15703;49.588;6.260;2023-04-25T12:22:00;5.60;;;3.77;;
28481;SDS011;15703;49.588;6.260;2023-04-25T12:24:25;3.37;;;2.73;;
28481;SDS011;15703;49.588;6.260;2023-04-25T12:27:06;6.60;;;3.07;;
28481;SDS011;15703;49.588;6.260;2023-04-25T12:29:32;7.83;;;3.67;;
28481;SDS011;15703;49.588;6.260;2023-04-25T12:32:09;4.50;;;3.27;;
28481;SDS011;15703;49.588;6.260;2023-04-25T12:34:32;5.50;;;3.03;;
28481;SDS011;15703;49.588;6.260;2023-04-25T12:36:57;8.40;;;3.23;;
28481;SDS011;15703;49.588;6.260;2023-04-25T12:39:23;5.07;;;2.90;;
28481;SDS011;15703;49.588;6.260;2023-04-25T12:41:46;6.00;;;3.00;;
28481;SDS011;15703;49.588;6.260;2023-04-25T12:46:59;5.47;;;3.13;;
28481;SDS011;15703;49.588;6.260;2023-04-25T12:49:22;5.28;;;2.83;;
28481;SDS011;15703;49.588;6.260;2023-04-25T12:51:45;7.55;;;3.22;;
28481;SDS011;15703;49.588;6.260;2023-04-25T12:54:08;4.15;;;3.22;;
28481;SDS011;15703;49.588;6.260;2023-04-25T12:56:31;6.43;;;2.83;;
28481;SDS011;15703;49.588;6.260;2023-04-25T12:58:53;6.30;;;3.17;;
28481;SDS011;15703;49.588;6.260;2023-04-25T13:01:16;8.50;;;3.33;;
28481;SDS011;15703;49.588;6.260;2023-04-25T13:03:58;4.63;;;2.90;;
28481;SDS011;15703;49.588;6.260;2023-04-25T13:06:21;6.83;;;3.13;;
28481;SDS011;15703;49.588;6.260;2023-04-25T13:08:50;3.53;;;2.60;;
28481;SDS011;15703;49.588;6.260;2023-04-25T13:11:13;5.57;;;2.73;;
28481;SDS011;15703;49.588;6.260;2023-04-25T13:13:44;4.03;;;2.53;;
28481;SDS011;15703;49.588;6.260;2023-04-25T13:16:07;5.37;;;2.80;;
28481;SDS011;15703;49.588;6.260;2023-04-25T13:18:37;4.33;;;2.40;;
28481;SDS011;15703;49.588;6.260;2023-04-25T13:20:59;6.27;;;3.10;;
28481;SDS011;15703;49.588;6.260;2023-04-25T13:23:25;4.30;;;2.47;;
28481;SDS011;15703;49.588;6.260;2023-04-25T13:26:04;7.23;;;2.53;;
28481;SDS011;15703;49.588;6.260;2023-04-25T13:28:26;5.90;;;2.50;;
28481;SDS011;15703;49.588;6.260;2023-04-25T13:31:37;5.07;;;2.80;;
28481;SDS011;15703;49.588;6.260;2023-04-25T13:34:00;6.25;;;2.67;;
28481;SDS011;15703;49.588;6.260;2023-04-25T13:36:42;5.53;;;2.53;;
28481;SDS011;15703;49.588;6.260;2023-04-25T13:39:07;4.50;;;2.85;;
28481;SDS011;15703;49.588;6.260;2023-04-25T13:41:29;5.03;;;2.63;;
28481;SDS011;15703;49.588;6.260;2023-04-25T13:43:55;9.10;;;2.72;;
28481;SDS011;15703;49.588;6.260;2023-04-25T13:46:44;5.57;;;2.30;;
28481;SDS011;15703;49.588;6.260;2023-04-25T13:49:09;3.83;;;2.17;;
28481;SDS011;15703;49.588;6.260;2023-04-25T13:51:33;3.90;;;2.50;;
28481;SDS011;15703;49.588;6.260;2023-04-25T13:54:21;4.95;;;2.40;;
28481;SDS011;15703;49.588;6.260;2023-04-25T13:57:34;3.35;;;2.50;;
28481;SDS011;15703;49.588;6.260;2023-04-25T13:59:58;6.80;;;2.60;;
28481;SDS011;15703;49.588;6.260;2023-04-25T14:02:20;2.93;;;1.90;;
28481;SDS011;15703;49.588;6.260;2023-04-25T14:04:43;5.67;;;2.47;;
28481;SDS011;15703;49.588;6.260;2023-04-25T14:07:06;3.53;;;2.40;;
28481;SDS011;15703;49.588;6.260;2023-04-25T14:09:28;7.13;;;2.73;;
28481;SDS011;15703;49.588;6.260;2023-04-25T14:11:51;5.53;;;2.57;;
28481;SDS011;15703;49.588;6.260;2023-04-25T14:14:14;6.28;;;2.33;;
28481;SDS011;15703;49.588;6.260;2023-04-25T14:16:37;4.22;;;2.20;;
28481;SDS011;15703;49.588;6.260;2023-04-25T14:19:00;4.88;;;2.35;;
28481;SDS011;15703;49.588;6.260;2023-04-25T14:21:23;4.15;;;2.35;;
28481;SDS011;15703;49.588;6.260;2023-04-25T14:24:08;4.20;;;2.40;;
28481;SDS011;15703;49.588;6.260;2023-04-25T14:26:44;3.65;;;2.35;;
28481;SDS011;15703;49.588;6.260;2023-04-25T14:29:07;5.35;;;2.35;;
28481;SDS011;15703;49.588;6.260;2023-04-25T14:31:30;5.32;;;2.17;;
28481;SDS011;15703;49.588;6.260;2023-04-25T14:34:17;4.40;;;2.10;;
28481;SDS011;15703;49.588;6.260;2023-04-25T14:36:41;3.72;;;1.70;;
28481;SDS011;15703;49.588;6.260;2023-04-25T14:39:05;3.93;;;2.10;;
28481;SDS011;15703;49.588;6.260;2023-04-25T14:42:10;5.40;;;2.23;;
28481;SDS011;15703;49.588;6.260;2023-04-25T14:44:32;4.27;;;1.97;;
28481;SDS011;15703;49.588;6.260;2023-04-25T14:46:55;4.10;;;2.03;;
28481;SDS011;15703;49.588;6.260;2023-04-25T14:49:17;5.27;;;2.10;;
28481;SDS011;15703;49.588;6.260;2023-04-25T14:51:40;4.97;;;2.80;;
28481;SDS011;15703;49.588;6.260;2023-04-25T14:54:02;5.17;;;2.33;;
28481;SDS011;15703;49.588;6.260;2023-04-25T14:56:24;3.13;;;2.03;;
28481;SDS011;15703;49.588;6.260;2023-04-25T14:58:47;3.47;;;2.03;;
28481;SDS011;15703;49.588;6.260;2023-04-25T15:01:10;4.53;;;2.20;;
28481;SDS011;15703;49.588;6.260;2023-04-25T15:03:32;5.13;;;2.10;;
28481;SDS011;15703;49.588;6.260;2023-04-25T15:05:55;3.13;;;2.10;;